Time;durP1;ratioP1;P1;durP2;ratioP2;P2;SDS_P1;SDS_P2;PMS_P1;PMS_P2;Temp;Humidity;BMP_temperature;BMP_pressure;BME280_temperature;BME280_humidity;BME280_pressure;Samples;Min_cycle;Max_cycle;Signal;HPM_P1;HPM_P2
2024/02/09 00:02:07;;;;;;;14.65;11.85;;;;;;;;;;5031267;28;20542;-60
2024/02/09 00:04:33;;;;;;;14.60;11.90;;;;;;;;;;5027989;28;20029;-59
2024/02/09 00:06:59;;;;;;;14.65;11.98;;;;;;;;;;5027539;28;20037;-60
2024/02/09 00:09:25;;;;;;;14.57;11.60;;;;;;;;;;5027748;28;20070;-58
2024/02/09 00:11:52;;;;;;;14.60;11.85;;;;;;;;;;5027677;28;20040;-60
2024/02/09 00:14:18;;;;;;;14.73;12.15;;;;;;;;;;5027823;28;20117;-58
2024/02/09 00:16:44;;;;;;;14.70;12.10;;;;;;;;;;5027665;28;20040;-62
2024/02/09 00:19:10;;;;;;;14.80;12.43;;;;;;;;;;5059669;28;20026;-60
2024/02/09 00:21:36;;;;;;;14.70;12.15;;;;;;;;;;5027408;28;20410;-60
2024/02/09 00:24:02;;;;;;;14.80;12.40;;;;;;;;;;5027543;28;20025;-60
2024/02/09 00:26:28;;;;;;;14.85;12.38;;;;;;;;;;5027549;28;20025;-57
2024/02/09 00:28:54;;;;;;;14.70;11.95;;;;;;;;;;5028126;28;20057;-60
2024/02/09 00:31:23;;;;;;;14.80;12.38;;;;;;;;;;5029164;28;20034;-60
2024/02/09 00:33:49;;;;;;;14.80;12.27;;;;;;;;;;5029764;28;20040;-58
2024/02/09 00:36:15;;;;;;;14.90;12.52;;;;;;;;;;5030544;28;20026;-59
2024/02/09 00:38:41;;;;;;;14.80;12.52;;;;;;;;;;5030035;28;20105;-59
2024/02/09 00:41:11;;;;;;;14.90;12.70;;;;;;;;;;5029996;28;20026;-57
2024/02/09 00:43:37;;;;;;;15.02;13.07;;;;;;;;;;5030078;28;20022;-58
2024/02/09 00:46:03;;;;;;;14.90;13.15;;;;;;;;;;5030639;28;20025;-59
2024/02/09 00:48:29;;;;;;;14.95;12.98;;;;;;;;;;5030088;28;20026;-59
2024/02/09 00:50:55;;;;;;;14.93;13.00;;;;;;;;;;5030065;28;20026;-59
2024/02/09 00:53:21;;;;;;;15.07;13.10;;;;;;;;;;5030039;28;20052;-55
2024/02/09 00:55:47;;;;;;;15.10;13.25;;;;;;;;;;5029982;28;20450;-59
2024/02/09 00:58:13;;;;;;;15.10;13.23;;;;;;;;;;5029944;28;20034;-59
2024/02/09 01:00:40;;;;;;;15.10;13.30;;;;;;;;;;5028745;28;20120;-59
2024/02/09 01:03:07;;;;;;;14.90;13.07;;;;;;;;;;5028981;28;20022;-58
2024/02/09 01:05:33;;;;;;;15.10;13.20;;;;;;;;;;5028835;28;20079;-60
2024/02/09 01:07:59;;;;;;;14.90;12.85;;;;;;;;;;5029996;28;20099;-59
2024/02/09 01:10:25;;;;;;;14.90;12.90;;;;;;;;;;5030144;28;20475;-56
2024/02/09 02:46:13;;;;;;;28.00;25.80;;;;;;;;;;5028432;28;20029;-59
2024/02/09 03:05:06;;;;;;;28.05;25.85;;;;;;;;;;5028518;28;20119;-58
2024/02/09 03:07:33;;;;;;;28.10;25.90;;;;;;;;;;5029170;28;20040;-56
2024/02/09 03:10:01;;;;;;;27.58;25.38;;;;;;;;;;5029260;28;20064;-58
2024/02/09 03:12:28;;;;;;;28.20;26.00;;;;;;;;;;5028844;28;20405;-57
2024/02/09 03:14:54;;;;;;;26.85;24.75;;;;;;;;;;5028903;28;20030;-60
2024/02/09 03:17:20;;;;;;;26.83;24.73;;;;;;;;;;5028584;28;20483;-61
2024/02/09 03:19:46;;;;;;;28.05;25.85;;;;;;;;;;5027417;28;20075;-57
2024/02/09 03:22:12;;;;;;;27.33;25.23;;;;;;;;;;5029235;28;20129;-59
2024/02/09 03:24:40;;;;;;;28.23;26.02;;;;;;;;;;5032154;28;20064;-59
2024/02/09 03:27:06;;;;;;;27.92;25.73;;;;;;;;;;5032196;28;20100;-59
2024/02/09 03:29:32;;;;;;;28.40;26.20;;;;;;;;;;5032048;28;20061;-57
2024/02/09 03:31:58;;;;;;;27.15;25.05;;;;;;;;;;5031817;28;20052;-59
2024/02/09 03:34:25;;;;;;;28.15;25.95;;;;;;;;;;5032226;28;20408;-58
2024/02/09 03:36:54;;;;;;;27.05;24.95;;;;;;;;;;5031934;28;20067;-60
2024/02/09 03:39:21;;;;;;;28.27;26.08;;;;;;;;;;5031892;28;20101;-59
2024/02/09 03:41:47;;;;;;;28.33;26.13;;;;;;;;;;5031494;28;20147;-60
2024/02/09 03:44:13;;;;;;;26.85;24.75;;;;;;;;;;5031844;28;20401;-60
2024/02/09 03:46:39;;;;;;;28.33;26.13;;;;;;;;;;5031644;28;20057;-60
2024/02/09 03:49:05;;;;;;;27.80;25.60;;;;;;;;;;5031557;28;20518;-61
2024/02/09 03:51:31;;;;;;;27.85;25.65;;;;;;;;;;5031276;28;20095;-59
2024/02/09 03:53:59;;;;;;;26.83;24.73;;;;;;;;;;5031265;28;20010;-58
2024/02/09 03:56:25;;;;;;;27.50;25.30;;;;;;;;;;5031304;28;20017;-60
2024/02/09 03:58:51;;;;;;;27.88;25.67;;;;;;;;;;5030034;28;20099;-61
2024/02/09 04:01:18;;;;;;;27.75;25.55;;;;;;;;;;5030924;28;20033;-60
2024/02/09 04:03:44;;;;;;;27.35;25.15;;;;;;;;;;5031452;28;20033;-59
2024/02/09 04:06:10;;;;;;;26.50;24.40;;;;;;;;;;5031877;28;20020;-59
2024/02/09 04:08:36;;;;;;;27.48;25.27;;;;;;;;;;5032105;28;20084;-55
2024/02/09 04:11:02;;;;;;;27.77;25.58;;;;;;;;;;5031857;28;20397;-58
2024/02/09 04:13:28;;;;;;;27.92;25.73;;;;;;;;;;5031680;28;20041;-59
2024/02/09 04:15:57;;;;;;;26.58;24.48;;;;;;;;;;5031514;28;20029;-58
2024/02/09 04:18:23;;;;;;;26.38;24.27;;;;;;;;;;5031614;28;20520;-60
2024/02/09 04:20:49;;;;;;;25.98;23.88;;;;;;;;;;5031599;28;20029;-60
2024/02/09 04:23:15;;;;;;;26.23;24.13;;;;;;;;;;5031491;28;20037;-57
2024/02/09 04:25:43;;;;;;;26.35;24.25;;;;;;;;;;5031366;28;20022;-59
2024/02/09 04:28:09;;;;;;;26.10;24.00;;;;;;;;;;5031756;28;20084;-59
2024/02/09 04:30:35;;;;;;;26.00;23.90;;;;;;;;;;5030771;28;20030;-59
2024/02/09 04:33:01;;;;;;;26.50;24.40;;;;;;;;;;5028948;28;20045;-59
2024/02/09 04:35:27;;;;;;;25.98;23.88;;;;;;;;;;5031149;28;20026;-59
2024/02/09 04:37:53;;;;;;;25.80;23.70;;;;;;;;;;5029217;28;20147;-59
2024/02/09 04:40:19;;;;;;;25.95;23.85;;;;;;;;;;5030421;28;20096;-59
2024/02/09 04:42:46;;;;;;;26.13;24.02;;;;;;;;;;5029881;28;20109;-57
2024/02/09 04:45:12;;;;;;;26.35;24.25;;;;;;;;;;5030212;28;20053;-58
2024/02/09 04:47:38;;;;;;;27.08;24.88;;;;;;;;;;5028638;28;20030;-60
2024/02/09 04:50:04;;;;;;;27.13;24.92;;;;;;;;;;5028966;28;20043;-60
2024/02/09 04:52:30;;;;;;;26.88;24.67;;;;;;;;;;5029832;28;20049;-56
2024/02/09 04:54:56;;;;;;;26.88;24.67;;;;;;;;;;5030086;28;20069;-58
2024/02/09 04:57:22;;;;;;;27.23;25.02;;;;;;;;;;5029983;28;20036;-60
2024/02/09 04:59:48;;;;;;;28.05;25.85;;;;;;;;;;5029935;28;20424;-59
2024/02/09 05:02:14;;;;;;;28.60;26.30;;;;;;;;;;5029552;28;20065;-59
2024/02/09 05:04:40;;;;;;;30.08;27.67;;;;;;;;;;5029722;28;20021;-57
2024/02/09 05:07:06;;;;;;;28.73;26.42;;;;;;;;;;5029567;28;20025;-59
2024/02/09 05:09:32;;;;;;;28.60;26.30;;;;;;;;;;5029738;28;20044;-61
2024/02/09 05:11:58;;;;;;;27.83;25.55;;;;;;;;;;5030083;28;20470;-58
2024/02/09 05:14:24;;;;;;;27.50;25.30;;;;;;;;;;5029730;28;20026;-56
2024/02/09 05:16:51;;;;;;;27.63;25.42;;;;;;;;;;5029443;28;20199;-59
2024/02/09 05:19:16;;;;;;;27.67;25.48;;;;;;;;;;5029667;28;20021;-58
2024/02/09 05:21:42;;;;;;;27.05;24.85;;;;;;;;;;5029130;28;20383;-59
2024/02/09 05:24:09;;;;;;;27.10;24.90;;;;;;;;;;5029489;28;20091;-60
2024/02/09 05:26:35;;;;;;;27.27;25.08;;;;;;;;;;5029534;28;20080;-60
2024/02/09 05:29:04;;;;;;;28.27;25.98;;;;;;;;;;5029828;28;20505;-58
2024/02/09 05:31:30;;;;;;;28.60;26.30;;;;;;;;;;5029331;28;20496;-57
2024/02/09 05:33:56;;;;;;;28.67;26.38;;;;;;;;;;5029861;28;20022;-60
2024/02/09 05:36:23;;;;;;;27.60;25.30;;;;;;;;;;5028327;28;20087;-60
2024/02/09 05:38:49;;;;;;;27.77;25.48;;;;;;;;;;5029491;28;20025;-59
2024/02/09 05:41:16;;;;;;;28.00;25.70;;;;;;;;;;5029466;28;20037;-60
2024/02/09 05:43:43;;;;;;;27.15;24.92;;;;;;;;;;5029552;28;20029;-57
2024/02/09 05:46:09;;;;;;;28.17;25.88;;;;;;;;;;5029000;28;20060;-61
2024/02/09 05:48:35;;;;;;;27.50;25.20;;;;;;;;;;5029460;28;20029;-59
2024/02/09 05:51:02;;;;;;;27.45;25.15;;;;;;;;;;5029138;28;20029;-60
2024/02/09 05:53:28;;;;;;;27.40;25.10;;;;;;;;;;5029099;28;20488;-58
2024/02/09 05:55:54;;;;;;;27.90;25.60;;;;;;;;;;5029425;28;20030;-61
2024/02/09 05:58:23;;;;;;;27.85;25.55;;;;;;;;;;5029166;28;20028;-58
2024/02/09 06:00:52;;;;;;;27.77;25.48;;;;;;;;;;5029123;28;20024;-59
2024/02/09 06:03:18;;;;;;;27.35;25.15;;;;;;;;;;5029351;28;20621;-60
2024/02/09 06:05:45;;;;;;;27.60;25.30;;;;;;;;;;5029320;28;20426;-59
2024/02/09 06:08:11;;;;;;;26.98;24.77;;;;;;;;;;5030381;28;20036;-60
2024/02/09 06:10:37;;;;;;;26.52;24.33;;;;;;;;;;5029773;28;20395;-60
2024/02/09 06:13:03;;;;;;;26.55;24.35;;;;;;;;;;5029766;28;20380;-59
2024/02/09 06:15:29;;;;;;;26.80;24.60;;;;;;;;;;5029189;28;20742;-58
2024/02/09 06:17:56;;;;;;;27.00;24.80;;;;;;;;;;5029713;28;20025;-58
2024/02/09 06:20:24;;;;;;;26.98;24.77;;;;;;;;;;5029837;28;20024;-61
2024/02/09 06:22:50;;;;;;;27.60;25.30;;;;;;;;;;5029620;28;20026;-58
2024/02/09 06:25:16;;;;;;;27.00;24.80;;;;;;;;;;5030172;28;20283;-56
2024/02/09 06:27:42;;;;;;;26.98;24.77;;;;;;;;;;5029809;28;20483;-61
2024/02/09 06:30:10;;;;;;;28.25;25.95;;;;;;;;;;5029486;28;20088;-58
2024/02/09 06:32:36;;;;;;;30.48;28.08;;;;;;;;;;5029367;28;20105;-59
2024/02/09 06:35:03;;;;;;;28.55;26.25;;;;;;;;;;5029588;28;20492;-59
2024/02/09 06:37:29;;;;;;;28.90;26.60;;;;;;;;;;5029823;28;20116;-62
2024/02/09 06:39:55;;;;;;;29.10;26.80;;;;;;;;;;5029706;28;20442;-59
2024/02/09 06:42:21;;;;;;;29.05;26.75;;;;;;;;;;5029060;28;20049;-61
2024/02/09 06:44:47;;;;;;;28.15;25.85;;;;;;;;;;5030051;28;20029;-58
2024/02/09 06:47:14;;;;;;;30.55;28.08;;;;;;;;;;5029478;28;20032;-60
2024/02/09 06:49:43;;;;;;;30.48;27.98;;;;;;;;;;5029264;28;20033;-60
2024/02/09 06:52:09;;;;;;;;;;;;;;;;;;5030099;28;20029;-59
2024/02/09 06:54:35;;;;;;;29.25;26.85;;;;;;;;;;5030021;28;19963;-60
2024/02/09 06:57:01;;;;;;;28.67;26.38;;;;;;;;;;5031599;28;20024;-60
2024/02/09 06:59:27;;;;;;;28.48;26.17;;;;;;;;;;5033106;28;20099;-59
2024/02/09 07:01:53;;;;;;;29.17;26.77;;;;;;;;;;5032956;28;20052;-61
2024/02/09 07:04:19;;;;;;;28.08;25.77;;;;;;;;;;5032992;28;20032;-61
2024/02/09 07:06:51;;;;;;;28.05;25.75;;;;;;;;;;5033034;28;20032;-60
2024/02/09 07:09:20;;;;;;;27.85;25.55;;;;;;;;;;5032224;28;20041;-56
2024/02/09 07:11:47;;;;;;;27.90;25.60;;;;;;;;;;5033051;28;20543;-60
2024/02/09 07:14:14;;;;;;;28.77;26.48;;;;;;;;;;5033145;28;20063;-59
2024/02/09 07:16:40;;;;;;;29.50;27.10;;;;;;;;;;5032961;28;20028;-60
2024/02/09 07:19:09;;;;;;;29.70;27.30;;;;;;;;;;5032116;28;20093;-59
2024/02/09 07:21:35;;;;;;;29.98;27.58;;;;;;;;;;5031649;28;20107;-58
2024/02/09 07:24:01;;;;;;;28.45;26.15;;;;;;;;;;5032642;28;20029;-59
2024/02/09 07:26:27;;;;;;;29.55;27.15;;;;;;;;;;5031240;28;20026;-55
2024/02/09 07:28:54;;;;;;;29.30;26.90;;;;;;;;;;5032511;28;20032;-57
2024/02/09 07:31:21;;;;;;;28.52;26.23;;;;;;;;;;5032545;28;20509;-58
2024/02/09 07:33:47;;;;;;;28.63;26.33;;;;;;;;;;5032400;28;20060;-58
2024/02/09 07:36:13;;;;;;;28.55;26.25;;;;;;;;;;5032486;28;20443;-57
2024/02/09 07:38:39;;;;;;;28.35;26.05;;;;;;;;;;5032556;28;20057;-58
2024/02/09 07:41:05;;;;;;;28.17;25.88;;;;;;;;;;5031132;28;20504;-60
2024/02/09 07:43:32;;;;;;;28.05;25.75;;;;;;;;;;5032050;28;20026;-58
2024/02/09 07:45:58;;;;;;;27.70;25.40;;;;;;;;;;5032413;28;20581;-59
2024/02/09 07:48:24;;;;;;;27.85;25.55;;;;;;;;;;5031046;28;20068;-59
2024/02/09 07:50:52;;;;;;;27.55;25.25;;;;;;;;;;5031671;28;20038;-58
2024/02/09 07:53:18;;;;;;;;;;;;;;;;;;5032006;28;20105;-59
2024/02/09 07:55:44;;;;;;;27.40;25.10;;;;;;;;;;5029269;28;20040;-58
2024/02/09 07:58:11;;;;;;;27.13;24.83;;;;;;;;;;5031635;28;20033;-56
2024/02/09 08:00:37;;;;;;;26.92;24.63;;;;;;;;;;5032277;28;20096;-59
2024/02/09 08:03:03;;;;;;;27.17;24.88;;;;;;;;;;5030913;28;20017;-59
2024/02/09 08:05:29;;;;;;;26.90;24.63;;;;;;;;;;5031747;28;20032;-59
2024/02/09 08:07:55;;;;;;;26.80;24.52;;;;;;;;;;5031291;28;20025;-59
2024/02/09 08:10:21;;;;;;;26.52;24.30;;;;;;;;;;5032622;28;20033;-59
2024/02/09 08:12:47;;;;;;;27.15;24.85;;;;;;;;;;5050720;28;20460;-58
2024/02/09 08:15:13;;;;;;;27.05;24.75;;;;;;;;;;5031628;28;20384;-58
2024/02/09 08:17:40;;;;;;;26.90;24.60;;;;;;;;;;5031982;28;20064;-56
2024/02/09 08:20:11;;;;;;;26.63;24.42;;;;;;;;;;5031602;28;20038;-59
2024/02/09 08:22:43;;;;;;;26.20;24.00;;;;;;;;;;5030959;28;20108;-58
2024/02/09 08:25:09;;;;;;;26.58;24.38;;;;;;;;;;5030229;28;20076;-59
2024/02/09 08:27:35;;;;;;;26.17;23.98;;;;;;;;;;5031344;28;20403;-59
2024/02/09 08:30:01;;;;;;;25.95;23.75;;;;;;;;;;5030987;28;20052;-59
2024/02/09 08:32:27;;;;;;;25.42;23.23;;;;;;;;;;5063005;28;20538;-60
2024/02/09 08:34:53;;;;;;;25.58;23.38;;;;;;;;;;5031148;28;20026;-60
2024/02/09 08:37:20;;;;;;;25.67;23.48;;;;;;;;;;5062875;28;20029;-60
2024/02/09 08:39:46;;;;;;;25.33;23.23;;;;;;;;;;5031403;28;20022;-59
2024/02/09 08:42:13;;;;;;;24.70;22.60;;;;;;;;;;5063114;28;20018;-60
2024/02/09 08:44:39;;;;;;;24.45;22.35;;;;;;;;;;5030794;28;20025;-61
2024/02/09 08:47:05;;;;;;;24.35;22.25;;;;;;;;;;5031216;28;20025;-60
2024/02/09 08:49:31;;;;;;;23.95;21.85;;;;;;;;;;5062620;28;20034;-53
2024/02/09 08:51:58;;;;;;;23.75;21.65;;;;;;;;;;5030583;28;20032;-61
2024/02/09 08:54:24;;;;;;;23.55;21.50;;;;;;;;;;5031016;28;20072;-58
2024/02/09 08:56:51;;;;;;;23.42;21.42;;;;;;;;;;5030959;28;20045;-58
2024/02/09 08:59:17;;;;;;;22.88;20.88;;;;;;;;;;5030571;28;20065;-57
2024/02/09 09:01:43;;;;;;;22.65;20.65;;;;;;;;;;5030545;28;20105;-57
2024/02/09 09:04:10;;;;;;;23.08;21.08;;;;;;;;;;5030997;28;20026;-52
2024/02/09 09:06:37;;;;;;;23.33;21.33;;;;;;;;;;5030863;28;20021;-53
2024/02/09 09:09:04;;;;;;;22.75;20.75;;;;;;;;;;5030501;28;20033;-51
2024/02/09 09:11:30;;;;;;;23.23;21.23;;;;;;;;;;5030123;28;20530;-55
2024/02/09 09:13:56;;;;;;;24.65;22.55;;;;;;;;;;5030683;28;20495;-54
2024/02/09 09:16:22;;;;;;;29.58;27.17;;;;;;;;;;5030802;28;20025;-56
2024/02/09 09:18:49;;;;;;;28.05;25.75;;;;;;;;;;5030028;28;20449;-59
2024/02/09 09:21:15;;;;;;;28.08;25.77;;;;;;;;;;5029002;28;20432;-56
2024/02/09 09:23:41;;;;;;;30.50;28.10;;;;;;;;;;5028721;28;20124;-54
2024/02/09 09:26:08;;;;;;;27.55;25.35;;;;;;;;;;5030588;28;20438;-59
2024/02/09 09:28:34;;;;;;;26.45;24.35;;;;;;;;;;5030472;28;20484;-57
2024/02/09 09:31:00;;;;;;;25.63;23.52;;;;;;;;;;5030356;28;20112;-56
2024/02/09 09:33:26;;;;;;;27.08;24.95;;;;;;;;;;5030062;28;20038;-56
2024/02/09 09:35:52;;;;;;;25.88;23.77;;;;;;;;;;5030075;28;20110;-53
2024/02/09 09:38:19;;;;;;;25.13;23.13;;;;;;;;;;5030139;28;20022;-56
2024/02/09 09:40:48;;;;;;;26.65;24.55;;;;;;;;;;5026155;28;20018;-54
2024/02/09 09:43:17;;;;;;;23.50;21.50;;;;;;;;;;5024297;28;20024;-55
2024/02/09 09:45:43;;;;;;;22.40;20.50;;;;;;;;;;5029659;28;20065;-52
2024/02/09 09:48:14;;;;;;;21.65;19.75;;;;;;;;;;5029375;28;20017;-56
2024/02/09 09:50:41;;;;;;;21.50;19.60;;;;;;;;;;5029758;28;20026;-57
2024/02/09 09:53:13;;;;;;;21.30;19.40;;;;;;;;;;5024769;28;20029;-56
2024/02/09 09:55:39;;;;;;;27.08;24.58;;;;;;;;;;5025501;28;20068;-53
2024/02/09 09:58:06;;;;;;;20.40;18.60;;;;;;;;;;5030698;28;20451;-57
2024/02/09 10:00:32;;;;;;;20.30;18.45;;;;;;;;;;5030847;28;20045;-57
2024/02/09 10:03:00;;;;;;;20.27;18.48;;;;;;;;;;5030043;28;20048;-56
2024/02/09 10:05:27;;;;;;;20.70;18.80;;;;;;;;;;5028671;28;20061;-54
2024/02/09 10:07:53;;;;;;;20.73;18.83;;;;;;;;;;5029771;28;20045;-55
2024/02/09 10:10:20;;;;;;;20.83;18.92;;;;;;;;;;5029786;28;20537;-54
2024/02/09 10:12:46;;;;;;;20.92;19.02;;;;;;;;;;5029568;28;20025;-55
2024/02/09 10:15:12;;;;;;;20.92;19.02;;;;;;;;;;5026451;28;20116;-53
2024/02/09 10:17:41;;;;;;;20.75;18.85;;;;;;;;;;5029241;28;20115;-55
2024/02/09 10:20:12;;;;;;;20.95;19.05;;;;;;;;;;5029053;28;20026;-55
2024/02/09 10:22:38;;;;;;;20.00;18.20;;;;;;;;;;5028714;28;20480;-56
2024/02/09 10:25:04;;;;;;;20.55;18.65;;;;;;;;;;5029950;28;20032;-56
2024/02/09 10:27:30;;;;;;;20.02;18.23;;;;;;;;;;5029988;28;20120;-55
2024/02/09 10:29:59;;;;;;;19.70;17.90;;;;;;;;;;5030276;28;20036;-55
2024/02/09 10:32:26;;;;;;;19.35;17.55;;;;;;;;;;5029204;28;20068;-58
2024/02/09 10:34:52;;;;;;;19.52;17.73;;;;;;;;;;5029477;28;20136;-59
2024/02/09 10:37:19;;;;;;;19.30;17.50;;;;;;;;;;5029184;28;20112;-57
2024/02/09 10:39:45;;;;;;;18.80;17.00;;;;;;;;;;5029410;28;20025;-55
2024/02/09 10:42:14;;;;;;;18.60;16.80;;;;;;;;;;5026114;28;20041;-57
2024/02/09 10:44:42;;;;;;;18.58;16.77;;;;;;;;;;5025991;28;20091;-57
2024/02/09 10:47:09;;;;;;;17.98;16.17;;;;;;;;;;5029624;28;20120;-57
2024/02/09 10:49:39;;;;;;;17.88;16.08;;;;;;;;;;5029019;28;20116;-54
2024/02/09 10:52:06;;;;;;;18.05;16.25;;;;;;;;;;5028857;28;20057;-58
2024/02/09 10:54:37;;;;;;;17.88;16.08;;;;;;;;;;5029156;28;20029;-58
2024/02/09 10:57:05;;;;;;;17.30;15.60;;;;;;;;;;5027532;28;20029;-58
2024/02/09 10:59:35;;;;;;;17.30;15.60;;;;;;;;;;5029320;28;20032;-54
2024/02/09 11:02:01;;;;;;;17.20;15.50;;;;;;;;;;5028593;28;20066;-57
2024/02/09 11:04:27;;;;;;;17.05;15.35;;;;;;;;;;5026467;28;20029;-57
2024/02/09 11:06:53;;;;;;;17.80;16.00;;;;;;;;;;5026196;28;20096;-55
2024/02/09 11:09:20;;;;;;;17.23;15.52;;;;;;;;;;5029109;28;20030;-55
2024/02/09 11:11:48;;;;;;;17.20;15.50;;;;;;;;;;5019799;28;20104;-59
2024/02/09 11:14:17;;;;;;;17.20;15.50;;;;;;;;;;5009342;28;20030;-57
2024/02/09 11:16:48;;;;;;;17.27;15.57;;;;;;;;;;5009624;28;20026;-59
2024/02/09 11:19:15;;;;;;;16.08;14.38;;;;;;;;;;5008328;28;20025;-58
2024/02/09 11:21:47;;;;;;;15.95;14.25;;;;;;;;;;5007876;28;20031;-56
2024/02/09 11:24:19;;;;;;;15.57;13.88;;;;;;;;;;5008292;28;20033;-57
2024/02/09 11:26:46;;;;;;;15.10;12.80;;;;;;;;;;5009615;28;20026;-58
2024/02/09 11:29:12;;;;;;;14.90;12.32;;;;;;;;;;5007885;28;20575;-55
2024/02/09 11:31:39;;;;;;;14.65;11.63;;;;;;;;;;5008880;28;20197;-58
2024/02/09 11:34:06;;;;;;;14.27;10.57;;;;;;;;;;5009224;28;20037;-58
2024/02/09 11:36:33;;;;;;;14.10;10.23;;;;;;;;;;5009507;28;20018;-55
2024/02/09 11:38:58;;;;;;;14.10;10.18;;;;;;;;;;5008973;28;20026;-58
2024/02/09 11:41:25;;;;;;;14.10;10.20;;;;;;;;;;5009235;28;20081;-57
2024/02/09 11:43:51;;;;;;;14.00;9.80;;;;;;;;;;5010812;28;20476;-58
2024/02/09 11:46:19;;;;;;;13.88;9.57;;;;;;;;;;5027123;28;20846;-57
2024/02/09 11:48:49;;;;;;;13.93;9.70;;;;;;;;;;5012132;28;20028;-56
2024/02/09 11:51:21;;;;;;;13.88;9.45;;;;;;;;;;5027798;28;20268;-56
2024/02/09 11:53:53;;;;;;;13.85;9.52;;;;;;;;;;5027813;28;20419;-57
2024/02/09 11:56:20;;;;;;;13.90;9.63;;;;;;;;;;5025969;28;20391;-57
2024/02/09 11:58:50;;;;;;;13.90;9.57;;;;;;;;;;5032263;28;20040;-57
2024/02/09 12:01:25;;;;;;;13.82;9.30;;;;;;;;;;5032279;28;20026;-60
2024/02/09 12:03:52;;;;;;;14.20;10.15;;;;;;;;;;5032660;28;20024;-54
2024/02/09 12:06:21;;;;;;;13.82;9.35;;;;;;;;;;5032544;28;20033;-58
2024/02/09 12:08:50;;;;;;;13.68;8.90;;;;;;;;;;5032059;28;20022;-60
2024/02/09 12:11:18;;;;;;;13.65;8.88;;;;;;;;;;5029791;28;20036;-57
2024/02/09 12:13:45;;;;;;;13.60;8.73;;;;;;;;;;5024164;28;20034;-59
2024/02/09 12:16:11;;;;;;;13.73;9.10;;;;;;;;;;5018060;28;20030;-58
2024/02/09 12:18:37;;;;;;;13.52;8.52;;;;;;;;;;5031403;28;20384;-58
2024/02/09 12:21:03;;;;;;;13.75;9.02;;;;;;;;;;5030565;28;20109;-58
2024/02/09 12:23:30;;;;;;;13.60;8.70;;;;;;;;;;5028715;28;20069;-56
2024/02/09 12:25:57;;;;;;;13.68;8.80;;;;;;;;;;5030490;28;20026;-56
2024/02/09 12:28:28;;;;;;;20.50;9.50;;;;;;;;;;5030668;28;20480;-51
2024/02/09 12:30:54;;;;;;;13.73;9.05;;;;;;;;;;5029583;28;20117;-55
2024/02/09 12:33:23;;;;;;;13.90;8.90;;;;;;;;;;5030111;28;20056;-57
2024/02/09 12:35:49;;;;;;;13.48;8.40;;;;;;;;;;5029985;28;20040;-56
2024/02/09 12:38:16;;;;;;;13.60;8.45;;;;;;;;;;5030075;28;20092;-56
2024/02/09 12:40:43;;;;;;;14.00;8.90;;;;;;;;;;5030457;28;20017;-56
2024/02/09 12:43:13;;;;;;;13.40;8.20;;;;;;;;;;5026351;28;20028;-57
2024/02/09 12:45:39;;;;;;;13.70;9.00;;;;;;;;;;5050369;22;20119;-52
2024/02/09 12:48:06;;;;;;;13.60;8.70;;;;;;;;;;5047219;28;20029;-49
2024/02/09 12:50:33;;;;;;;13.52;8.60;;;;;;;;;;5047579;28;20029;-50
2024/02/09 12:53:03;;;;;;;13.60;8.85;;;;;;;;;;5049738;28;20024;-50
2024/02/09 12:55:30;;;;;;;13.55;8.65;;;;;;;;;;5050022;28;20364;-52
2024/02/09 12:57:56;;;;;;;13.70;9.00;;;;;;;;;;5067733;28;20207;-52
2024/02/09 13:00:23;;;;;;;13.52;8.70;;;;;;;;;;5071025;28;20122;-52
2024/02/09 13:02:49;;;;;;;13.52;8.63;;;;;;;;;;5070795;28;20043;-57
2024/02/09 13:05:15;;;;;;;13.55;8.65;;;;;;;;;;5070621;28;20021;-52
2024/02/09 13:07:43;;;;;;;13.60;8.88;;;;;;;;;;5070987;28;20324;-51
2024/02/09 13:10:10;;;;;;;13.68;9.00;;;;;;;;;;5070913;28;20398;-52
2024/02/09 13:12:37;;;;;;;13.77;9.13;;;;;;;;;;5070794;28;20056;-52
2024/02/09 13:15:06;;;;;;;14.00;9.90;;;;;;;;;;5071090;28;20051;-55
2024/02/09 13:17:35;;;;;;;;;;;;;;;;;;5069902;28;20043;-54
2024/02/09 13:20:03;;;;;;;14.20;10.13;;;;;;;;;;5070938;28;19919;-54
2024/02/09 13:22:29;;;;;;;14.15;10.30;;;;;;;;;;5069010;28;20017;-56
2024/02/09 13:24:55;;;;;;;15.20;13.07;;;;;;;;;;5070147;28;20029;-57
2024/02/09 13:27:21;;;;;;;16.50;14.80;;;;;;;;;;5070875;28;20028;-53
2024/02/09 13:29:48;;;;;;;16.60;14.90;;;;;;;;;;5069352;28;20029;-53
2024/02/09 13:32:16;;;;;;;20.02;18.23;;;;;;;;;;5069575;28;20051;-50
2024/02/09 13:34:42;;;;;;;19.77;17.97;;;;;;;;;;5061562;28;20059;-53
2024/02/09 13:37:08;;;;;;;20.85;18.95;;;;;;;;;;5070175;28;20028;-54
2024/02/09 13:39:34;;;;;;;19.55;17.75;;;;;;;;;;5069019;28;20020;-55
2024/02/09 13:42:01;;;;;;;23.65;21.65;;;;;;;;;;5070096;28;20387;-51
2024/02/09 13:44:27;;;;;;;19.25;17.45;;;;;;;;;;5070620;28;20060;-53
2024/02/09 13:46:53;;;;;;;19.83;18.02;;;;;;;;;;5059683;28;20068;-53
2024/02/09 13:49:19;;;;;;;18.17;16.38;;;;;;;;;;5062545;28;20031;-52
2024/02/09 13:51:45;;;;;;;16.88;15.18;;;;;;;;;;5069816;28;20103;-53
2024/02/09 13:54:11;;;;;;;16.58;14.88;;;;;;;;;;5068299;28;20025;-51
2024/02/09 13:56:38;;;;;;;15.77;14.07;;;;;;;;;;5069529;28;20083;-55
2024/02/09 13:59:04;;;;;;;15.90;14.20;;;;;;;;;;5069847;28;20025;-50
2024/02/09 14:01:30;;;;;;;15.93;14.23;;;;;;;;;;5069390;28;20024;-53
2024/02/09 14:03:57;;;;;;;15.60;13.90;;;;;;;;;;5068637;28;20025;-52
2024/02/09 14:06:24;;;;;;;15.60;13.90;;;;;;;;;;5069296;28;20571;-53
2024/02/09 14:08:50;;;;;;;16.10;14.40;;;;;;;;;;5069951;28;20474;-51
2024/02/09 14:11:18;;;;;;;15.48;13.77;;;;;;;;;;5069568;28;20375;-57
2024/02/09 14:13:45;;;;;;;16.00;14.30;;;;;;;;;;5069388;28;20096;-52
2024/02/09 14:16:11;;;;;;;15.20;13.45;;;;;;;;;;5069714;28;20430;-56
2024/02/09 14:18:37;;;;;;;15.82;14.13;;;;;;;;;;5069596;28;20047;-54
2024/02/09 14:21:06;;;;;;;15.80;14.10;;;;;;;;;;5069520;28;20017;-55
2024/02/09 14:23:32;;;;;;;16.20;14.50;;;;;;;;;;5069703;28;20028;-51
2024/02/09 14:25:59;;;;;;;15.60;13.90;;;;;;;;;;5069777;28;20050;-54
2024/02/09 14:28:25;;;;;;;15.60;13.90;;;;;;;;;;5069730;28;20063;-55
2024/02/09 14:30:51;;;;;;;15.30;13.60;;;;;;;;;;5069635;28;20036;-55
2024/02/09 14:33:20;;;;;;;15.32;13.63;;;;;;;;;;5069713;28;20066;-54
2024/02/09 14:35:47;;;;;;;15.20;13.45;;;;;;;;;;5069471;28;20490;-53
2024/02/09 14:38:14;;;;;;;15.48;13.77;;;;;;;;;;5068966;28;20048;-51
2024/02/09 14:40:40;;;;;;;15.30;13.60;;;;;;;;;;5069119;28;20025;-53
2024/02/09 14:43:06;;;;;;;15.38;13.68;;;;;;;;;;5068975;28;20031;-53
2024/02/09 14:45:35;;;;;;;15.10;13.00;;;;;;;;;;5068857;28;20033;-55
2024/02/09 14:48:01;;;;;;;14.98;12.70;;;;;;;;;;5069479;28;20036;-54
2024/02/09 14:50:28;;;;;;;14.90;12.50;;;;;;;;;;5069267;28;20032;-49
2024/02/09 14:52:55;;;;;;;14.75;12.15;;;;;;;;;;5069133;28;20399;-56
2024/02/09 14:55:23;;;;;;;14.80;12.32;;;;;;;;;;5069356;28;20051;-52
2024/02/09 14:57:48;;;;;;;14.80;12.10;;;;;;;;;;5069800;28;20124;-54
2024/02/09 15:00:15;;;;;;;14.70;12.02;;;;;;;;;;5069564;28;20443;-51
2024/02/09 15:02:42;;;;;;;14.80;12.27;;;;;;;;;;5057856;28;20601;-56
2024/02/09 15:05:10;;;;;;;17.52;12.40;;;;;;;;;;5049191;28;20021;-55
2024/02/09 15:07:36;;;;;;;14.57;11.35;;;;;;;;;;5049260;28;20038;-54
2024/02/09 15:10:04;;;;;;;14.30;10.63;;;;;;;;;;5049383;28;20079;-57
2024/02/09 15:12:30;;;;;;;14.10;10.20;;;;;;;;;;5049219;28;20471;-56
2024/02/09 15:14:59;;;;;;;14.05;9.95;;;;;;;;;;5049423;28;20475;-52
2024/02/09 15:17:25;;;;;;;13.98;9.75;;;;;;;;;;5050919;28;20025;-53
2024/02/09 15:19:51;;;;;;;13.90;9.57;;;;;;;;;;5053276;28;20089;-56
2024/02/09 15:22:17;;;;;;;13.85;9.38;;;;;;;;;;5053016;28;20438;-57
2024/02/09 15:24:43;;;;;;;13.65;9.00;;;;;;;;;;5053425;28;20017;-56
2024/02/09 15:27:09;;;;;;;13.77;9.20;;;;;;;;;;5053001;28;20139;-55
2024/02/09 15:29:35;;;;;;;13.68;8.90;;;;;;;;;;5052897;28;20109;-53
2024/02/09 15:32:02;;;;;;;13.80;9.10;;;;;;;;;;5051267;28;20028;-48
2024/02/09 15:34:28;;;;;;;13.75;9.13;;;;;;;;;;5052646;28;20056;-49
2024/02/09 15:36:54;;;;;;;13.90;9.40;;;;;;;;;;5053256;28;20089;-54
2024/02/09 15:39:20;;;;;;;13.63;8.90;;;;;;;;;;5052966;28;20032;-54
2024/02/09 15:41:46;;;;;;;13.65;8.85;;;;;;;;;;5052406;28;20681;-53
2024/02/09 15:44:13;;;;;;;13.60;8.80;;;;;;;;;;5052534;28;20033;-54
2024/02/09 15:46:39;;;;;;;13.70;9.05;;;;;;;;;;5052421;28;20050;-52
2024/02/09 15:49:05;;;;;;;13.60;8.65;;;;;;;;;;5051773;28;20548;-57
2024/02/09 15:51:32;;;;;;;13.38;8.40;;;;;;;;;;5052390;28;20037;-54
2024/02/09 15:53:58;;;;;;;13.65;8.90;;;;;;;;;;4706071;28;10000399;-52
2024/02/09 15:56:29;;;;;;;13.57;8.70;;;;;;;;;;5062535;28;20084;-52
2024/02/09 15:58:55;;;;;;;13.50;8.60;;;;;;;;;;5063735;28;20100;-54
2024/02/09 16:01:21;;;;;;;13.57;8.65;;;;;;;;;;5047538;28;20119;-54
2024/02/09 16:03:48;;;;;;;13.55;8.48;;;;;;;;;;5055637;28;20671;-52
2024/02/09 16:06:16;;;;;;;13.57;8.70;;;;;;;;;;5069061;28;20075;-56
2024/02/09 16:08:43;;;;;;;13.35;8.18;;;;;;;;;;5068959;28;20031;-55